Coober Pedy, Australia

9:00 PM ACDT on March 29, 2017 (GMT +1030)
Coober Pedy | | Change Station

Elev 738 ft 29.04 °S, 134.72 °E | Updated 30 minutes ago

Scattered Clouds
Scattered Clouds
75 °F
Feels Like 75 °F
N
33
Wind Variable Wind from South

Today
High -- | Low -- °F
--% Chance of Precip.
Yesterday
High -- | Low -- °F
Precip. -- in
Pressure 30.01 in
Visibility 6.2 miles
Clouds Scattered Clouds 6400 ft
Dew Point 52 °F
Humidity 44%
Rainfall 0.00 in
Snow Depth Not available.
7:39 AM 7:31 PM
New Moon, 2% visible
METAR YCBP 291000Z AUTO 19029KT 9999 SCT064 24/11 Q1016
Pressure 30.01 in
Visibility 6.2 miles
Clouds Scattered Clouds 6400 ft
Dew Point 52 °F
Humidity 44%
Rainfall 0.00 in
Snow Depth Not available.
7:39 AM 7:31 PM
New Moon, 2% visible
METAR YCBP 291000Z AUTO 19029KT 9999 SCT064 24/11 Q1016

Get Severe Weather Alerts

Thanks for signing up!

Be on the lookout for a verification email in your inbox.

You'll start receiving the daily forecast at 8 AM.

×

10-Day Weather Forecast

×

Almanac

Astronomy

Mar. 29, 2017 Rise Set
Actual Time
Civil Twilight
Nautical Twilight
Astronomical Twilight
Moon
Length of Visible Light
Length of Day
Tomorrow will be .
, % of the Moon is Illuminated

Today's Extremes

Country Highs Country Lows

Community

WunderPhotos

Upload Photos

1,962,540 photos uploaded!

WunderBlog® & News

Nearby

Air Quality

  Air Quality AQ Index Pollutant
Not available.

Snow Depth

Station Depth Elevation

Earthquake Activity

City Distance Mag. Time & Date
Minimum magnitude displayed is 2.5.

Earthquake Activity

City Distance Mag. Time & Date
Minimum magnitude displayed is 2.5.

Coastal Water Temperatures

Place Temperature

Stations

Nearby Weather Stations

Station Location Temp. Windchill Dew Point Humidity Wind Precip. Elev Updated Type